Terminal Aerodrome Forecast
Issued by NWS

Home | Current Version | Previous Version | Graphics & Text | Print | Product List | Glossary On
Versions: 1 2 3 4 5 6 7 8 9 10 11 12 13 14 15 16 17 18 19 20
000
FTUS43 KBIS 030534
TAFDIK
TAF
KDIK 030534Z 0306/0406 34011KT P6SM VCSH BKN070 OVC100
     FM031100 28012KT P6SM SCT100 BKN150
     FM031500 35012KT P6SM SCT180
     FM031800 34014KT P6SM FEW090
     FM040100 03006KT P6SM SKC=

USA.gov is the U.S. government's official web portal to all federal, state and local government web resources and services.